createdAt,value
2022-10-23T00:00:06.876Z,73.1
2022-10-23T00:01:06.792Z,73
2022-10-23T00:02:06.866Z,73
2022-10-23T00:03:06.781Z,72.7
2022-10-23T00:04:06.788Z,72.7
2022-10-23T00:05:06.788Z,72.8
2022-10-23T00:06:06.786Z,72.5
2022-10-23T00:07:06.779Z,72.5
2022-10-23T00:08:06.787Z,72.4
2022-10-23T00:09:06.778Z,72.5
2022-10-23T00:10:06.774Z,72.5
2022-10-23T00:11:06.776Z,72.3
2022-10-23T00:12:06.778Z,72.4
2022-10-23T00:13:06.776Z,72.9
2022-10-23T00:14:06.779Z,72.9
2022-10-23T00:15:06.799Z,72.9
2022-10-23T00:16:06.781Z,72.9
2022-10-23T00:17:06.782Z,72.8
2022-10-23T00:19:06.777Z,72.6
2022-10-23T00:20:06.781Z,72.6
2022-10-23T00:21:06.779Z,72.5
2022-10-23T00:22:06.785Z,72.4
2022-10-23T00:25:06.780Z,73.1
2022-10-23T00:26:06.784Z,73.1
2022-10-23T00:28:06.783Z,72.9
2022-10-23T00:29:06.788Z,72.7
2022-10-23T00:30:06.783Z,72.4
2022-10-23T00:31:06.787Z,72.4
2022-10-23T00:32:06.780Z,72.5
2022-10-23T00:33:06.771Z,72.9
2022-10-23T00:34:06.779Z,73
2022-10-23T00:35:06.785Z,73.1
2022-10-23T00:36:06.782Z,73.4
2022-10-23T00:37:06.776Z,73.3
2022-10-23T00:38:06.785Z,72.9
2022-10-23T00:39:06.783Z,72.7
2022-10-23T00:41:06.786Z,72.6
2022-10-23T00:42:06.790Z,72.9
2022-10-23T00:44:06.786Z,73.1
2022-10-23T00:45:06.796Z,73.2
2022-10-23T00:46:06.810Z,73
2022-10-23T00:47:06.783Z,73.1
2022-10-23T00:50:06.788Z,72.8
2022-10-23T00:51:06.831Z,72.6
2022-10-23T00:52:06.784Z,72.5
2022-10-23T00:53:06.783Z,72.8
2022-10-23T00:55:06.785Z,72.4
2022-10-23T00:56:06.786Z,72.2
2022-10-23T00:59:06.801Z,72.2
2022-10-23T01:00:06.786Z,72.3
2022-10-23T01:01:06.866Z,72.4
2022-10-23T01:02:06.959Z,72.3
2022-10-23T01:04:06.782Z,72.5
2022-10-23T01:05:06.791Z,72.4
2022-10-23T01:06:06.783Z,72.3
2022-10-23T01:07:06.790Z,72.5
2022-10-23T01:08:06.785Z,72.7
2022-10-23T01:09:06.782Z,72.8
2022-10-23T01:11:06.786Z,72.7
2022-10-23T01:12:06.783Z,72.7
2022-10-23T01:13:06.788Z,72.6
2022-10-23T01:14:06.792Z,72.1
2022-10-23T01:15:06.796Z,72
2022-10-23T01:17:06.816Z,72.5
2022-10-23T01:18:06.785Z,72.6
2022-10-23T01:19:06.792Z,72.3
2022-10-23T01:21:06.791Z,72.4
2022-10-23T01:22:06.794Z,72.1
2022-10-23T01:23:06.789Z,71.9
2022-10-23T01:24:06.788Z,71.9
2022-10-23T01:25:06.791Z,71.9
2022-10-23T01:26:06.788Z,71.9
2022-10-23T01:27:06.791Z,72.1
2022-10-23T01:28:06.786Z,72.2
2022-10-23T01:29:06.797Z,72.2
2022-10-23T01:30:06.832Z,72.2
2022-10-23T01:31:06.793Z,72.3
2022-10-23T01:32:06.790Z,72.7
2022-10-23T01:33:06.793Z,72.8
2022-10-23T01:34:06.798Z,72.6
2022-10-23T01:36:06.801Z,72.6
2022-10-23T01:37:06.808Z,72.8
2022-10-23T01:38:06.792Z,72.9
2022-10-23T01:39:06.794Z,73
2022-10-23T01:43:06.802Z,72.7
2022-10-23T01:44:06.793Z,72.8
2022-10-23T01:45:06.804Z,72.8
2022-10-23T01:46:06.798Z,72.7
2022-10-23T01:47:06.798Z,72.8
2022-10-23T01:48:06.831Z,72.9
2022-10-23T01:50:06.789Z,72.9
2022-10-23T01:51:06.808Z,73
2022-10-23T01:52:06.798Z,73.3
2022-10-23T01:53:06.799Z,73.3
2022-10-23T01:54:06.796Z,73.5
2022-10-23T01:55:06.803Z,73.4
2022-10-23T01:56:06.799Z,73.5
2022-10-23T01:57:06.800Z,73.7
2022-10-23T01:58:06.793Z,73.6
2022-10-23T01:59:06.790Z,73.4
2022-10-23T02:00:06.800Z,73.2
2022-10-23T02:01:06.839Z,73.5
2022-10-23T02:04:06.825Z,73.8
2022-10-23T02:05:06.804Z,73.6
2022-10-23T02:06:06.799Z,73.5
2022-10-23T02:07:06.797Z,73.5
2022-10-23T02:08:06.806Z,73.4
2022-10-23T02:09:06.799Z,73.6
2022-10-23T02:10:06.800Z,73.5
2022-10-23T02:11:06.826Z,73.5
2022-10-23T02:12:06.807Z,73.7
2022-10-23T02:14:06.798Z,73.6
2022-10-23T02:15:06.803Z,73.7
2022-10-23T02:16:06.799Z,73.7
2022-10-23T02:18:06.791Z,74
2022-10-23T02:19:06.829Z,74
2022-10-23T02:20:06.795Z,73.8
2022-10-23T02:21:06.801Z,73.7
2022-10-23T02:22:06.798Z,73.7
2022-10-23T02:23:06.802Z,73.4
2022-10-23T02:25:06.795Z,73.5
2022-10-23T02:26:06.812Z,73.6
2022-10-23T02:27:06.797Z,73.8
2022-10-23T02:29:06.806Z,73.8
2022-10-23T02:30:06.821Z,73.7
2022-10-23T02:31:06.798Z,73.5
2022-10-23T02:32:06.799Z,73.7
2022-10-23T02:33:06.807Z,73.4
2022-10-23T02:35:06.802Z,73.4
2022-10-23T02:36:06.801Z,73.8
2022-10-23T02:37:06.802Z,73.9
2022-10-23T02:40:06.804Z,74
2022-10-23T02:41:06.800Z,74.2
2022-10-23T02:42:06.805Z,74.4
2022-10-23T02:43:06.801Z,74.6
2022-10-23T02:44:06.804Z,74.4
2022-10-23T02:45:06.800Z,74.4
2022-10-23T02:46:06.799Z,74.3
2022-10-23T02:47:06.801Z,74.3
2022-10-23T02:48:06.804Z,74.4
2022-10-23T02:50:06.831Z,74.2
2022-10-23T02:51:06.809Z,74.3
2022-10-23T02:52:06.806Z,74.4
2022-10-23T02:53:06.806Z,74.4
2022-10-23T02:54:06.811Z,74.1
2022-10-23T02:55:06.809Z,74.1
2022-10-23T02:57:06.808Z,74
2022-10-23T02:58:06.819Z,73.9
2022-10-23T03:00:06.810Z,73.9
2022-10-23T03:01:06.868Z,74
2022-10-23T03:02:07.066Z,74.1
2022-10-23T03:04:06.810Z,74.3
2022-10-23T03:06:06.802Z,74.6
2022-10-23T03:07:06.819Z,74.2
2022-10-23T03:08:06.810Z,74.1
2022-10-23T03:09:06.814Z,73.9
2022-10-23T03:11:06.867Z,74
2022-10-23T03:13:06.804Z,74
2022-10-23T03:14:06.812Z,74
2022-10-23T03:15:06.810Z,74
2022-10-23T03:17:06.809Z,73.9
2022-10-23T03:18:06.812Z,73.9
2022-10-23T03:19:06.841Z,74.1
2022-10-23T03:21:06.834Z,74.5
2022-10-23T03:22:06.806Z,74.5
2022-10-23T03:23:06.805Z,74.3
2022-10-23T03:24:06.801Z,74.2
2022-10-23T03:25:06.808Z,74.4
2022-10-23T03:27:06.809Z,74.5
2022-10-23T03:28:06.812Z,74.4
2022-10-23T03:29:06.814Z,74.2
2022-10-23T03:30:06.807Z,74.3
2022-10-23T03:32:06.830Z,73.7
2022-10-23T03:33:06.806Z,73.8
2022-10-23T03:34:08.188Z,74
2022-10-23T03:35:06.809Z,74.1
2022-10-23T03:36:06.823Z,74.3
2022-10-23T03:37:06.809Z,74.3
2022-10-23T03:38:06.814Z,74.4
2022-10-23T03:39:06.814Z,74.6
2022-10-23T03:40:06.810Z,74.5
2022-10-23T03:42:06.812Z,74.5
2022-10-23T03:43:06.808Z,74.5
2022-10-23T03:44:06.811Z,74.3
2022-10-23T03:45:06.808Z,74.1
2022-10-23T03:46:06.810Z,73.8
2022-10-23T03:47:06.814Z,73.9
2022-10-23T03:48:06.808Z,74.3
2022-10-23T03:49:06.828Z,74.6
2022-10-23T03:50:06.808Z,74.9
2022-10-23T03:51:06.818Z,75.1
2022-10-23T03:53:06.811Z,75.2
2022-10-23T03:54:06.813Z,75.1
2022-10-23T03:55:06.815Z,75
2022-10-23T03:56:06.811Z,74.7
2022-10-23T03:57:06.816Z,74.7
2022-10-23T03:58:06.808Z,74.5
2022-10-23T03:59:06.813Z,74.5
2022-10-23T04:00:06.813Z,74.8
2022-10-23T04:03:06.817Z,74.8
2022-10-23T04:04:06.822Z,74.8
2022-10-23T04:05:06.815Z,74.6
2022-10-23T04:07:06.809Z,74.6
2022-10-23T04:08:06.816Z,74.4
2022-10-23T04:09:06.878Z,74.6
2022-10-23T04:11:06.815Z,74.7
2022-10-23T04:12:06.821Z,74.6
2022-10-23T04:16:06.818Z,74.6
2022-10-23T04:17:06.824Z,74.5
2022-10-23T04:18:06.840Z,74.7
2022-10-23T04:19:06.818Z,74.8
2022-10-23T04:20:06.821Z,74.6
2022-10-23T04:21:06.849Z,74.9
2022-10-23T04:22:06.831Z,74.9
2022-10-23T04:23:06.839Z,75.2
2022-10-23T04:24:06.817Z,75
2022-10-23T04:25:06.814Z,75.1
2022-10-23T04:26:06.819Z,75.2
2022-10-23T04:28:06.818Z,75.4
2022-10-23T04:29:06.822Z,75.4
2022-10-23T04:30:06.821Z,75.3
2022-10-23T04:31:06.842Z,75.7
2022-10-23T04:33:06.821Z,75.9
2022-10-23T04:35:06.827Z,75.9
2022-10-23T04:36:06.822Z,75.8
2022-10-23T04:38:06.823Z,75.7
2022-10-23T04:39:06.834Z,75.4
2022-10-23T04:40:06.827Z,75.3
2022-10-23T04:41:06.826Z,75.2
2022-10-23T04:42:06.824Z,75.2
2022-10-23T04:43:06.825Z,75.3
2022-10-23T04:44:06.823Z,75.1
2022-10-23T04:46:06.819Z,74.9
2022-10-23T04:47:06.821Z,75.1
2022-10-23T04:48:06.821Z,75.2
2022-10-23T04:49:06.841Z,75.2
2022-10-23T04:50:06.818Z,75
2022-10-23T04:51:06.819Z,74.9
2022-10-23T04:53:06.821Z,75.2
2022-10-23T04:54:06.849Z,75.2
2022-10-23T04:55:06.822Z,75.3
2022-10-23T04:56:06.817Z,75
2022-10-23T04:57:06.821Z,75.2
2022-10-23T04:58:06.826Z,75.2
2022-10-23T04:59:06.863Z,75
2022-10-23T05:02:06.829Z,75.2
2022-10-23T05:03:06.824Z,75
2022-10-23T05:04:06.824Z,75.2
2022-10-23T05:05:06.825Z,75.2
2022-10-23T05:07:06.829Z,75.3
2022-10-23T05:08:06.827Z,75.2
2022-10-23T05:09:06.849Z,75.2
2022-10-23T05:12:06.829Z,75.4
2022-10-23T05:13:06.830Z,75.5
2022-10-23T05:15:06.825Z,75.8
2022-10-23T05:16:06.842Z,75.9
2022-10-23T05:17:06.840Z,75.7
2022-10-23T05:18:06.825Z,75.6
2022-10-23T05:19:06.824Z,75.6
2022-10-23T05:20:06.824Z,75.7
2022-10-23T05:21:06.831Z,75.9
2022-10-23T05:22:06.839Z,76
2022-10-23T05:24:06.834Z,75.9
2022-10-23T05:25:06.851Z,76.3
2022-10-23T05:28:06.834Z,76.2
2022-10-23T05:29:06.832Z,76.2
2022-10-23T05:31:06.839Z,75.7
2022-10-23T05:32:06.837Z,75.5
2022-10-23T05:33:06.831Z,75.4
2022-10-23T05:34:09.851Z,75.2
2022-10-23T05:35:06.835Z,75.3
2022-10-23T05:36:06.828Z,75.2
2022-10-23T05:37:06.828Z,75.3
2022-10-23T05:38:06.821Z,75.2
2022-10-23T05:39:06.835Z,75.3
2022-10-23T05:40:06.835Z,75.5
2022-10-23T05:41:06.829Z,75.6
2022-10-23T05:42:06.828Z,75.4
2022-10-23T05:44:06.823Z,75.6
2022-10-23T05:45:06.850Z,75.6
2022-10-23T05:46:06.825Z,75.3
2022-10-23T05:47:06.829Z,75.3
2022-10-23T05:49:06.848Z,75.3
2022-10-23T05:50:06.834Z,75.4
2022-10-23T05:51:06.840Z,75.5
2022-10-23T05:52:06.835Z,75.7
2022-10-23T05:53:06.832Z,75.9
2022-10-23T05:54:06.833Z,75.9
2022-10-23T05:55:06.835Z,75.8
2022-10-23T05:56:06.852Z,75.7
2022-10-23T05:57:06.952Z,75.5
2022-10-23T05:58:06.832Z,75.5
2022-10-23T05:59:06.840Z,75.6
2022-10-23T06:00:06.877Z,75.7
2022-10-23T06:01:06.962Z,75.9
2022-10-23T06:02:06.983Z,75.9
2022-10-23T06:03:06.842Z,75.9
2022-10-23T06:04:06.830Z,75.5
2022-10-23T06:05:06.836Z,75.6
2022-10-23T06:06:06.841Z,75.7
2022-10-23T06:07:06.832Z,75.7
2022-10-23T06:08:06.841Z,75.6
2022-10-23T06:09:06.846Z,75.6
2022-10-23T06:10:06.838Z,75.5
2022-10-23T06:11:06.837Z,75.3
2022-10-23T06:13:06.835Z,75.6
2022-10-23T06:14:06.832Z,75.4
2022-10-23T06:15:06.847Z,75.6
2022-10-23T06:16:09.620Z,75.6
2022-10-23T06:17:06.984Z,75.7
2022-10-23T06:18:06.832Z,75.6
2022-10-23T06:21:06.837Z,75.7
2022-10-23T06:22:06.889Z,76
2022-10-23T06:23:06.831Z,76.2
2022-10-23T06:25:06.838Z,76.4
2022-10-23T06:26:06.839Z,76.4
2022-10-23T06:27:06.864Z,76.3
2022-10-23T06:28:06.845Z,76.5
2022-10-23T06:29:06.847Z,76.8
2022-10-23T06:30:06.836Z,76.8
2022-10-23T06:31:06.843Z,77.2
2022-10-23T06:32:06.849Z,77
2022-10-23T06:33:06.843Z,76.9
2022-10-23T06:35:06.837Z,76.5
2022-10-23T06:36:06.841Z,76.2
2022-10-23T06:37:06.846Z,76.3
2022-10-23T06:38:06.842Z,75.8
2022-10-23T06:39:06.843Z,75.8
2022-10-23T06:41:06.844Z,75.9
2022-10-23T06:42:06.843Z,76.5
2022-10-23T06:43:06.840Z,77
2022-10-23T06:44:06.843Z,77.1
2022-10-23T06:45:07.436Z,77.3
2022-10-23T06:47:06.923Z,76.8
2022-10-23T06:49:06.845Z,76.2
2022-10-23T06:50:09.457Z,76.1
2022-10-23T06:51:06.853Z,76.1
2022-10-23T06:52:14.300Z,76
2022-10-23T06:53:06.840Z,76
2022-10-23T06:54:06.845Z,75.9
2022-10-23T06:56:06.861Z,76
2022-10-23T06:57:06.840Z,76.1
2022-10-23T06:58:06.866Z,76
2022-10-23T06:59:06.853Z,75.8
2022-10-23T07:00:06.850Z,75.7
2022-10-23T07:02:06.858Z,75.6
2022-10-23T07:03:06.849Z,75.5
2022-10-23T07:04:06.848Z,75.7
2022-10-23T07:06:06.853Z,75.9
2022-10-23T07:07:06.849Z,76
2022-10-23T07:08:06.854Z,76.1
2022-10-23T07:09:06.847Z,76
2022-10-23T07:11:06.856Z,76.2
2022-10-23T07:13:06.862Z,76.2
2022-10-23T07:14:06.843Z,76.3
2022-10-23T07:16:06.859Z,76.2
2022-10-23T07:17:06.858Z,76.4
2022-10-23T07:19:06.884Z,76.8
2022-10-23T07:20:06.857Z,76.7
2022-10-23T07:21:06.856Z,76.5
2022-10-23T07:22:08.067Z,76.8
2022-10-23T07:23:06.844Z,77
2022-10-23T07:24:06.847Z,77
2022-10-23T07:25:06.854Z,77
2022-10-23T07:26:06.849Z,76.9
2022-10-23T07:28:06.846Z,76.8
2022-10-23T07:29:07.080Z,76.7
2022-10-23T07:30:06.851Z,76.5
2022-10-23T07:31:06.850Z,76.5
2022-10-23T07:33:06.860Z,76.6
2022-10-23T07:34:06.847Z,76.7
2022-10-23T07:35:06.947Z,76.8
2022-10-23T07:37:06.850Z,76.7
2022-10-23T07:38:06.847Z,76.5
2022-10-23T07:39:06.849Z,76.5
2022-10-23T07:40:06.860Z,76.5
2022-10-23T07:41:08.973Z,76.7
2022-10-23T07:42:06.854Z,76.9
2022-10-23T07:43:06.943Z,76.9
2022-10-23T07:44:06.860Z,76.8
2022-10-23T07:46:06.848Z,76.6
2022-10-23T07:49:06.858Z,76.3
2022-10-23T07:50:06.849Z,76.5
2022-10-23T07:51:06.858Z,76.9
2022-10-23T07:52:06.853Z,77
2022-10-23T07:53:06.854Z,77
2022-10-23T07:54:06.851Z,77.1
2022-10-23T07:55:06.859Z,77.1
2022-10-23T07:56:06.854Z,77
2022-10-23T07:57:06.855Z,77.1
2022-10-23T07:58:06.858Z,77
2022-10-23T08:00:06.887Z,76.9
2022-10-23T08:01:06.935Z,77
2022-10-23T08:02:06.925Z,76.8
2022-10-23T08:03:06.854Z,77
2022-10-23T08:04:06.859Z,76.8
2022-10-23T08:05:06.855Z,76.6
2022-10-23T08:06:06.862Z,76.6
2022-10-23T08:07:06.860Z,76.6
2022-10-23T08:10:06.858Z,76.4
2022-10-23T08:11:06.863Z,76.4
2022-10-23T08:12:06.858Z,76.4
2022-10-23T08:14:06.858Z,76.3
2022-10-23T08:15:06.853Z,76.1
2022-10-23T08:16:06.859Z,76.1
2022-10-23T08:17:06.876Z,76.1
2022-10-23T08:18:06.864Z,75.9
2022-10-23T08:20:06.864Z,76.1
2022-10-23T08:21:06.869Z,76
2022-10-23T08:22:06.860Z,76.2
2022-10-23T08:24:06.868Z,76
2022-10-23T08:25:06.862Z,76.1
2022-10-23T08:26:06.878Z,76
2022-10-23T08:28:06.871Z,76
2022-10-23T08:29:06.859Z,75.9
2022-10-23T08:30:06.859Z,75.9
2022-10-23T08:31:06.884Z,76
2022-10-23T08:32:06.872Z,75.9
2022-10-23T08:33:06.864Z,76
2022-10-23T08:34:06.880Z,76.1
2022-10-23T08:35:06.863Z,76.2
2022-10-23T08:37:06.870Z,76.4
2022-10-23T08:38:06.866Z,76.1
2022-10-23T08:39:06.861Z,76.2
2022-10-23T08:42:06.906Z,75.8
2022-10-23T08:43:06.877Z,75.7
2022-10-23T08:44:06.860Z,75.6
2022-10-23T08:45:06.872Z,75.6
2022-10-23T08:46:09.284Z,75.5
2022-10-23T08:47:06.871Z,75.4
2022-10-23T08:48:06.862Z,75.2
2022-10-23T08:50:06.884Z,75.1
2022-10-23T08:51:06.877Z,74.9
2022-10-23T08:52:09.145Z,74.9
2022-10-23T08:53:06.872Z,74.9
2022-10-23T08:54:06.866Z,74.7
2022-10-23T08:56:06.875Z,74.8
2022-10-23T08:57:06.870Z,74.7
2022-10-23T08:58:06.870Z,74.5
2022-10-23T08:59:06.871Z,74.2
2022-10-23T09:00:06.875Z,74.1
2022-10-23T09:03:06.867Z,74.5
2022-10-23T09:04:06.870Z,74.3
2022-10-23T09:05:06.872Z,74.4
2022-10-23T09:06:06.871Z,74.2
2022-10-23T09:07:06.921Z,74
2022-10-23T09:09:06.870Z,74.1
2022-10-23T09:10:06.872Z,73.9
2022-10-23T09:11:06.874Z,73.9
2022-10-23T09:12:06.871Z,73.9
2022-10-23T09:13:06.874Z,74.2
2022-10-23T09:15:06.869Z,74.4
2022-10-23T09:16:06.878Z,74.2
2022-10-23T09:18:06.878Z,74.4
2022-10-23T09:19:11.362Z,75.2
2022-10-23T09:20:06.878Z,75.1
2022-10-23T09:22:06.888Z,74.8
2022-10-23T09:24:06.882Z,74.6
2022-10-23T09:25:06.875Z,74.8
2022-10-23T09:27:06.882Z,74.8
2022-10-23T09:29:06.880Z,74.8
2022-10-23T09:30:06.883Z,74.8
2022-10-23T09:31:06.880Z,74.9
2022-10-23T09:32:06.887Z,74.8
2022-10-23T09:34:11.564Z,75.1
2022-10-23T09:35:06.895Z,75
2022-10-23T09:36:06.885Z,75
2022-10-23T09:37:06.877Z,74.9
2022-10-23T09:38:06.873Z,74.7
2022-10-23T09:39:06.885Z,74.7
2022-10-23T09:40:06.880Z,74.8
2022-10-23T09:41:06.876Z,74.6
2022-10-23T09:42:06.881Z,74.6
2022-10-23T09:45:06.882Z,74.4
2022-10-23T09:46:06.892Z,74.7
2022-10-23T09:47:06.894Z,74.7
2022-10-23T09:48:06.880Z,74.6
2022-10-23T09:49:06.884Z,74.8
2022-10-23T09:50:06.888Z,74.9
2022-10-23T09:51:06.888Z,74.9
2022-10-23T09:53:06.884Z,75.1
2022-10-23T09:54:06.884Z,75.1
2022-10-23T09:55:06.884Z,75.3
2022-10-23T09:57:06.879Z,75.5
2022-10-23T09:59:06.879Z,75.5
2022-10-23T10:00:06.886Z,75.3
2022-10-23T10:01:07.014Z,75.3
2022-10-23T10:02:06.982Z,75.1
2022-10-23T10:04:06.923Z,74.9
2022-10-23T10:06:06.890Z,74.9
2022-10-23T10:07:06.888Z,75
2022-10-23T10:08:06.887Z,74.9
2022-10-23T10:09:06.889Z,74.8
2022-10-23T10:10:06.880Z,74.8
2022-10-23T10:11:06.881Z,74.9
2022-10-23T10:12:06.887Z,74.8
2022-10-23T10:13:06.888Z,74.7
2022-10-23T10:15:06.884Z,74.6
2022-10-23T10:16:06.888Z,74.5
2022-10-23T10:17:06.888Z,74.7
2022-10-23T10:18:06.890Z,74.7
2022-10-23T10:19:07.263Z,74.6
2022-10-23T10:20:07.234Z,74.6
2022-10-23T10:21:06.895Z,74.7
2022-10-23T10:22:06.885Z,75
2022-10-23T10:23:06.897Z,75
2022-10-23T10:24:06.885Z,75.1
2022-10-23T10:25:06.892Z,75.3
2022-10-23T10:26:06.894Z,75.3
2022-10-23T10:27:06.887Z,75.2
2022-10-23T10:28:06.892Z,75.3
2022-10-23T10:29:06.892Z,75.4
2022-10-23T10:30:06.890Z,75.4
2022-10-23T10:31:06.905Z,75.4
2022-10-23T10:32:06.898Z,75.4
2022-10-23T10:33:06.894Z,75.5
2022-10-23T10:34:06.888Z,75.5
2022-10-23T10:35:06.920Z,75.4
2022-10-23T10:36:06.898Z,75.2
2022-10-23T10:37:06.893Z,75.1
2022-10-23T10:38:06.897Z,74.8
2022-10-23T10:39:06.894Z,74.6
2022-10-23T10:40:06.900Z,74.5
2022-10-23T10:42:06.901Z,74.2
2022-10-23T10:43:06.894Z,74.1
2022-10-23T10:44:06.899Z,73.9
2022-10-23T10:45:06.900Z,73.7
2022-10-23T10:46:07.041Z,73.4
2022-10-23T10:48:06.897Z,73.5
2022-10-23T10:49:06.902Z,72.8
2022-10-23T10:51:06.904Z,72.4
2022-10-23T10:53:06.899Z,71.3
2022-10-23T10:54:06.900Z,71.4
2022-10-23T10:55:06.897Z,71.6
2022-10-23T10:56:06.936Z,71.6
2022-10-23T10:58:06.896Z,71.9
2022-10-23T11:00:06.899Z,71.3
2022-10-23T11:01:07.045Z,71.5
2022-10-23T11:03:06.906Z,71.4
2022-10-23T11:04:06.900Z,71.1
2022-10-23T11:05:06.906Z,70.7
2022-10-23T11:07:06.902Z,70.1
2022-10-23T11:08:06.905Z,70.3
2022-10-23T11:09:19.741Z,70.3
2022-10-23T11:10:06.917Z,70.5
2022-10-23T11:12:06.896Z,70.4
2022-10-23T11:14:06.903Z,69.7
2022-10-23T11:15:06.903Z,69.2
2022-10-23T11:16:06.959Z,69
2022-10-23T11:19:11.326Z,68.7
2022-10-23T11:21:06.913Z,68.4
2022-10-23T11:22:06.903Z,68.3
2022-10-23T11:23:06.902Z,68.3
2022-10-23T11:24:06.983Z,68.3
2022-10-23T11:25:06.905Z,67.9
2022-10-23T11:26:06.907Z,67.5
2022-10-23T11:27:06.907Z,67.3
2022-10-23T11:28:10.319Z,67
2022-10-23T11:29:06.907Z,66.7
2022-10-23T11:30:06.906Z,66.4
2022-10-23T11:31:10.928Z,66.4
2022-10-23T11:32:06.911Z,66.9
2022-10-23T11:33:06.902Z,66.8
2022-10-23T11:34:06.915Z,66.8
2022-10-23T11:35:06.912Z,66.5
2022-10-23T11:36:06.917Z,66.3
2022-10-23T11:37:06.934Z,66.2
2022-10-23T11:38:06.911Z,66.2
2022-10-23T11:39:06.902Z,66.3
2022-10-23T11:40:06.902Z,66.3
2022-10-23T11:42:06.910Z,66.3
2022-10-23T11:43:06.912Z,66.4
2022-10-23T11:44:06.921Z,66.1
2022-10-23T11:45:06.915Z,66.2
2022-10-23T11:46:06.912Z,65.5
2022-10-23T11:47:06.912Z,65.2
2022-10-23T11:48:06.910Z,65.7
2022-10-23T11:49:06.990Z,65.8
2022-10-23T11:51:06.925Z,65.2
2022-10-23T11:52:06.911Z,65.3
2022-10-23T11:53:15.476Z,65.2
2022-10-23T11:55:06.909Z,64.8
2022-10-23T11:56:06.926Z,64.7
2022-10-23T11:57:10.082Z,64.9
2022-10-23T11:58:06.920Z,65.2
2022-10-23T11:59:06.911Z,65.1
2022-10-23T12:00:06.917Z,65.6
2022-10-23T12:01:07.019Z,65.4
2022-10-23T12:03:06.921Z,65.7
2022-10-23T12:04:06.917Z,65.6
2022-10-23T12:05:06.913Z,65.8
2022-10-23T12:06:06.927Z,65.6
2022-10-23T12:08:06.942Z,65.8
2022-10-23T12:09:06.917Z,65.6
2022-10-23T12:10:06.919Z,65.2
2022-10-23T12:12:06.932Z,65.9
2022-10-23T12:13:06.917Z,65.9
2022-10-23T12:14:06.971Z,66.2
2022-10-23T12:16:06.925Z,65
2022-10-23T12:17:06.929Z,65.5
2022-10-23T12:18:06.925Z,65.8
2022-10-23T12:19:06.923Z,65.2
2022-10-23T12:20:06.916Z,65.3
2022-10-23T12:21:06.923Z,65.7
2022-10-23T12:22:06.945Z,64.7
2022-10-23T12:24:06.921Z,62.1
2022-10-23T12:26:06.923Z,62.8
2022-10-23T12:27:06.921Z,62.9
2022-10-23T12:28:06.932Z,62.5
2022-10-23T12:30:06.930Z,61.1
2022-10-23T12:31:06.935Z,60.2
2022-10-23T12:32:06.931Z,60.5
2022-10-23T12:33:06.928Z,60.5
2022-10-23T12:34:07.533Z,59.7
2022-10-23T12:35:06.920Z,60
2022-10-23T12:36:06.923Z,60.2
2022-10-23T12:37:06.927Z,59.3
2022-10-23T12:38:06.926Z,59
2022-10-23T12:39:07.016Z,59.4
2022-10-23T12:40:06.928Z,58.6
2022-10-23T12:41:06.929Z,58.5
2022-10-23T12:43:06.932Z,58.3
2022-10-23T12:44:06.921Z,59.1
2022-10-23T12:45:06.924Z,58.5
2022-10-23T12:47:06.940Z,59.3
2022-10-23T12:48:06.942Z,59.4
2022-10-23T12:49:06.935Z,59.1
2022-10-23T12:50:06.933Z,59
2022-10-23T12:52:06.937Z,59.4
2022-10-23T12:53:06.931Z,59.5
2022-10-23T12:54:06.924Z,59.3
2022-10-23T12:55:06.935Z,59.5
2022-10-23T12:56:06.940Z,59.4
2022-10-23T12:57:06.930Z,59.3
2022-10-23T12:58:06.934Z,58.7
2022-10-23T12:59:06.924Z,59.1
2022-10-23T13:01:07.185Z,58.3
2022-10-23T13:02:07.141Z,58.9
2022-10-23T13:03:06.938Z,59.3
2022-10-23T13:04:06.967Z,58.8
2022-10-23T13:05:06.943Z,58.8
2022-10-23T13:06:06.946Z,59.4
2022-10-23T13:08:06.935Z,59.2
2022-10-23T13:09:06.942Z,59.2
2022-10-23T13:10:06.958Z,59.1
2022-10-23T13:11:06.933Z,59
2022-10-23T13:12:06.943Z,59.1
2022-10-23T13:13:06.939Z,59.4
2022-10-23T13:14:06.937Z,59.7
2022-10-23T13:16:06.950Z,59.1
2022-10-23T13:17:06.948Z,59.6
2022-10-23T13:19:06.939Z,59.3
2022-10-23T13:20:06.977Z,59.9
2022-10-23T13:21:06.944Z,59.7
2022-10-23T13:22:06.941Z,59.7
2022-10-23T13:24:06.940Z,60
2022-10-23T13:25:06.940Z,59.6
2022-10-23T13:26:06.940Z,59.6
2022-10-23T13:27:06.938Z,59.9
2022-10-23T13:28:06.939Z,60.2
2022-10-23T13:29:09.529Z,59.7
2022-10-23T13:30:09.901Z,59.3
2022-10-23T13:31:06.947Z,59.3
2022-10-23T13:33:06.936Z,59.4
2022-10-23T13:34:06.948Z,59.4
2022-10-23T13:35:21.588Z,59.6
2022-10-23T13:36:06.945Z,59.7
2022-10-23T13:37:06.948Z,59.2
2022-10-23T13:38:06.938Z,59.2
2022-10-23T13:40:07.004Z,59.3
2022-10-23T13:41:06.961Z,59.6
2022-10-23T13:42:06.942Z,59.8
2022-10-23T13:43:06.947Z,59.6
2022-10-23T13:44:06.947Z,59.8
2022-10-23T13:45:06.945Z,59.6
2022-10-23T13:47:06.944Z,59.5
2022-10-23T13:49:06.950Z,59.3
2022-10-23T13:50:06.952Z,59.4
2022-10-23T13:51:06.947Z,59.4
2022-10-23T13:52:06.952Z,59.6
2022-10-23T13:53:06.946Z,59.6
2022-10-23T13:54:06.948Z,59.7
2022-10-23T13:55:06.946Z,59.8
2022-10-23T13:56:06.949Z,59.8
2022-10-23T13:57:06.947Z,60.1
2022-10-23T13:58:06.945Z,59.7
2022-10-23T13:59:06.951Z,59.6
2022-10-23T14:00:06.954Z,59.8
2022-10-23T14:01:07.133Z,60.1
2022-10-23T14:02:07.065Z,60.4
2022-10-23T14:03:06.957Z,60.1
2022-10-23T14:05:06.971Z,59.8
2022-10-23T14:06:06.952Z,59.9
2022-10-23T14:08:06.946Z,60.2
2022-10-23T14:09:06.948Z,60.1
2022-10-23T14:10:06.952Z,59.9
2022-10-23T14:11:07.046Z,59.5
2022-10-23T14:12:06.979Z,59.8
2022-10-23T14:13:06.952Z,60.3
2022-10-23T14:14:06.954Z,60.4
2022-10-23T14:15:06.958Z,60.3
2022-10-23T14:16:06.954Z,59.9
2022-10-23T14:18:08.377Z,60.1
2022-10-23T14:19:06.951Z,59.9
2022-10-23T14:20:06.951Z,60.3
2022-10-23T14:21:06.954Z,60.1
2022-10-23T14:23:06.964Z,60
2022-10-23T14:24:06.955Z,59.9
2022-10-23T14:25:06.970Z,60
2022-10-23T14:26:06.960Z,60.5
2022-10-23T14:28:06.953Z,60.5
2022-10-23T14:29:09.943Z,60.5
2022-10-23T14:30:06.959Z,60.4
2022-10-23T14:32:07.006Z,60.3
2022-10-23T14:33:06.960Z,60.2
2022-10-23T14:34:06.959Z,60.2
2022-10-23T14:35:06.962Z,60.2
2022-10-23T14:36:07.030Z,60.5
2022-10-23T14:37:09.264Z,60.7
2022-10-23T14:38:06.960Z,60.7
2022-10-23T14:39:06.968Z,60.7
2022-10-23T14:40:06.961Z,60.4
2022-10-23T14:41:06.966Z,60.9
2022-10-23T14:43:06.988Z,61.2
2022-10-23T14:44:06.969Z,61.4
2022-10-23T14:45:06.965Z,61.7
2022-10-23T14:46:06.961Z,61.2
2022-10-23T14:47:06.973Z,60.3
2022-10-23T14:48:06.993Z,60.6
2022-10-23T14:50:06.977Z,60.7
2022-10-23T14:51:06.968Z,60.2
2022-10-23T14:52:06.960Z,60.5
2022-10-23T14:53:06.967Z,60.8
2022-10-23T14:54:06.965Z,60.8
2022-10-23T14:55:06.970Z,61
2022-10-23T14:56:06.962Z,60.5
2022-10-23T14:57:06.973Z,60.4
2022-10-23T14:58:06.971Z,60.3
2022-10-23T14:59:06.968Z,60.2
2022-10-23T15:00:06.966Z,60.6
2022-10-23T15:01:07.140Z,60.7
2022-10-23T15:02:06.970Z,60.3
2022-10-23T15:03:06.972Z,60.6
2022-10-23T15:04:06.983Z,60.7
2022-10-23T15:06:06.977Z,61.4
2022-10-23T15:07:06.978Z,61.3
2022-10-23T15:08:06.966Z,60.9
2022-10-23T15:09:06.976Z,60.7
2022-10-23T15:12:06.976Z,61
2022-10-23T15:13:06.981Z,61
2022-10-23T15:14:06.996Z,61.1
2022-10-23T15:15:06.976Z,61.1
2022-10-23T15:16:06.977Z,60.9
2022-10-23T15:18:06.972Z,61
2022-10-23T15:19:06.974Z,61
2022-10-23T15:20:06.977Z,61.6
2022-10-23T15:21:06.981Z,61.6
2022-10-23T15:22:06.971Z,61.8
2022-10-23T15:23:06.979Z,62
2022-10-23T15:24:06.978Z,62.1
2022-10-23T15:25:06.975Z,62.4
2022-10-23T15:26:06.977Z,62.2
2022-10-23T15:27:07.059Z,62.6
2022-10-23T15:28:06.973Z,62.4
2022-10-23T15:29:06.970Z,62.3
2022-10-23T15:30:06.988Z,62.4
2022-10-23T15:31:06.986Z,62.6
2022-10-23T15:32:06.978Z,62.6
2022-10-23T15:33:06.974Z,62.7
2022-10-23T15:34:06.975Z,62.8
2022-10-23T15:35:06.980Z,63
2022-10-23T15:36:06.986Z,62.9
2022-10-23T15:37:06.986Z,62.9
2022-10-23T15:38:06.977Z,63
2022-10-23T15:39:06.986Z,63.2
2022-10-23T15:40:06.975Z,63.1
2022-10-23T15:41:06.979Z,63.1
2022-10-23T15:43:09.487Z,63.3
2022-10-23T15:44:06.983Z,63.3
2022-10-23T15:45:07.013Z,63.7
2022-10-23T15:46:06.979Z,64
2022-10-23T15:47:06.983Z,64.7
2022-10-23T15:48:06.983Z,65.4
2022-10-23T15:49:06.984Z,65.6
2022-10-23T15:50:07.052Z,65.9
2022-10-23T15:53:06.984Z,66.2
2022-10-23T15:54:06.977Z,66.5
2022-10-23T15:55:06.991Z,66.4
2022-10-23T15:56:06.986Z,66.7
2022-10-23T15:57:06.988Z,67
2022-10-23T15:58:06.984Z,67.1
2022-10-23T15:59:06.986Z,67.5
2022-10-23T16:00:06.988Z,67.5
2022-10-23T16:02:07.173Z,68.3
2022-10-23T16:03:06.989Z,68.9
2022-10-23T16:04:06.990Z,69.5
2022-10-23T16:05:06.986Z,70
2022-10-23T16:07:06.991Z,70.7
2022-10-23T16:08:06.988Z,71.2
2022-10-23T16:09:06.998Z,71.7
2022-10-23T16:10:06.995Z,72.2
2022-10-23T16:11:06.986Z,72.2
2022-10-23T16:12:06.998Z,72.4
2022-10-23T16:13:07.005Z,73.1